createdAt,value
2023-03-18T00:04:46.895Z,100401.03
2023-03-18T00:09:50.815Z,100412.16
2023-03-18T00:14:54.099Z,100419.53
2023-03-18T00:20:05.792Z,100412.88
2023-03-18T00:25:10.954Z,100422.16
2023-03-18T00:30:15.088Z,100412.09
2023-03-18T00:35:19.997Z,100414.88
2023-03-18T00:40:30.254Z,100403.53
2023-03-18T00:45:33.660Z,100406.59
2023-03-18T00:50:38.715Z,100400.03
2023-03-18T00:55:42.393Z,100406.16
2023-03-18T01:00:46.003Z,100407.88
2023-03-18T01:05:51.447Z,100399.91
2023-03-18T01:10:54.786Z,100403.19
2023-03-18T01:15:58.080Z,100405.81
2023-03-18T01:21:02.808Z,100413.69
2023-03-18T01:26:07.091Z,100416.09
2023-03-18T01:31:10.860Z,100422.44
2023-03-18T01:36:15.805Z,100423.22
2023-03-18T01:41:18.950Z,100434.66
2023-03-18T01:46:34.724Z,100424.16
2023-03-18T01:51:41.976Z,100433.00
2023-03-18T01:56:47.598Z,100445.06
2023-03-18T02:01:55.257Z,100438.81
2023-03-18T02:07:01.528Z,100434.56
2023-03-18T02:12:04.863Z,100442.09
2023-03-18T02:17:12.332Z,100424.81
2023-03-18T02:22:25.007Z,100432.13
2023-03-18T02:27:32.958Z,100422.31
2023-03-18T02:32:37.200Z,100419.63
2023-03-18T02:37:40.674Z,100422.81
2023-03-18T02:42:46.138Z,100424.28
2023-03-18T02:47:50.309Z,100414.81
2023-03-18T02:52:53.452Z,100417.19
2023-03-18T02:57:58.074Z,100412.16
2023-03-18T03:03:02.017Z,100405.53
2023-03-18T03:08:05.933Z,100402.31
2023-03-18T03:13:11.790Z,100408.41
2023-03-18T03:18:15.675Z,100420.50
2023-03-18T03:23:18.962Z,100424.25
2023-03-18T03:28:23.620Z,100416.66
2023-03-18T03:33:27.958Z,100414.63
2023-03-18T03:38:31.169Z,100410.25
2023-03-18T03:43:35.837Z,100406.69
2023-03-18T03:48:39.656Z,100413.06
2023-03-18T03:53:43.796Z,100408.41
2023-03-18T03:58:48.581Z,100410.59
2023-03-18T04:03:51.890Z,100417.44
2023-03-18T04:08:55.568Z,100428.00
2023-03-18T04:14:00.304Z,100422.72
2023-03-18T04:19:03.584Z,100432.44
2023-03-18T04:24:07.765Z,100434.41
2023-03-18T04:29:12.592Z,100424.00
2023-03-18T04:34:15.916Z,100427.06
2023-03-18T04:39:19.430Z,100431.28
2023-03-18T04:44:24.455Z,100434.09
2023-03-18T04:49:27.392Z,100437.84
2023-03-18T04:54:30.658Z,100436.53
2023-03-18T04:59:35.472Z,100440.78
2023-03-18T05:04:39.284Z,100439.94
2023-03-18T05:09:43.839Z,100438.13
2023-03-18T05:14:48.698Z,100449.94
2023-03-18T05:19:52.066Z,100467.03
2023-03-18T05:24:56.042Z,100468.34
2023-03-18T05:30:01.267Z,100471.50
2023-03-18T05:35:05.784Z,100469.94
2023-03-18T05:40:11.849Z,100470.38
2023-03-18T05:45:16.563Z,100486.00
2023-03-18T05:50:29.159Z,100474.53
2023-03-18T05:55:33.121Z,100475.06
2023-03-18T06:00:38.565Z,100469.34
2023-03-18T06:05:42.331Z,100475.72
2023-03-18T06:10:45.810Z,100483.53
2023-03-18T06:15:50.475Z,100477.53
2023-03-18T06:20:53.810Z,100487.59
2023-03-18T06:25:57.350Z,100491.91
2023-03-18T06:31:02.879Z,100499.88
2023-03-18T06:36:07.069Z,100503.22
2023-03-18T06:41:10.471Z,100503.94
2023-03-18T06:46:15.638Z,100510.31
2023-03-18T06:51:18.852Z,100520.38
2023-03-18T06:56:22.383Z,100519.16
2023-03-18T07:01:27.139Z,100513.47
2023-03-18T07:06:31.951Z,100529.84
2023-03-18T07:11:35.195Z,100523.69
2023-03-18T07:16:39.809Z,100533.03
2023-03-18T07:21:43.959Z,100537.00
2023-03-18T07:26:47.443Z,100542.78
2023-03-18T07:31:52.050Z,100551.50
2023-03-18T07:36:55.310Z,100558.13
2023-03-18T07:41:58.546Z,100565.31
2023-03-18T07:47:03.764Z,100572.97
2023-03-18T07:52:07.235Z,100572.16
2023-03-18T07:57:11.752Z,100580.59
2023-03-18T08:02:17.195Z,100586.88
2023-03-18T08:07:20.330Z,100591.63
2023-03-18T08:12:23.754Z,100589.91
2023-03-18T08:17:28.527Z,100584.84
2023-03-18T08:22:31.840Z,100596.38
2023-03-18T08:27:35.250Z,100591.44
2023-03-18T08:32:39.897Z,100600.44
2023-03-18T08:37:43.179Z,100606.50
2023-03-18T08:42:47.150Z,100606.88
2023-03-18T08:47:51.764Z,100609.56
2023-03-18T08:52:55.137Z,100619.59
2023-03-18T08:57:58.900Z,100634.91
2023-03-18T09:03:03.826Z,100638.53
2023-03-18T09:08:07.243Z,100652.63
2023-03-18T09:13:10.406Z,100648.34
2023-03-18T09:18:15.121Z,100653.84
2023-03-18T09:23:18.799Z,100661.34
2023-03-18T09:28:22.349Z,100662.34
2023-03-18T09:33:26.988Z,100676.97
2023-03-18T09:38:30.237Z,100677.34
2023-03-18T09:43:57.520Z,100683.97
2023-03-18T09:49:29.979Z,100688.06
2023-03-18T09:54:39.505Z,100699.72
2023-03-18T09:59:47.073Z,100697.66
2023-03-18T10:04:56.318Z,100698.38
2023-03-18T10:10:03.910Z,100694.91
2023-03-18T10:15:16.536Z,100710.06
2023-03-18T10:20:28.901Z,100705.66
2023-03-18T10:25:37.672Z,100703.28
2023-03-18T10:30:55.123Z,100698.44
2023-03-18T10:36:06.672Z,100689.72
2023-03-18T10:41:17.851Z,100703.28
2023-03-18T10:46:23.198Z,100702.41
2023-03-18T10:51:36.440Z,100698.06
2023-03-18T10:56:39.853Z,100701.25
2023-03-18T11:01:45.791Z,100702.66
2023-03-18T11:06:54.473Z,100693.34
2023-03-18T11:12:00.142Z,100704.63
2023-03-18T11:17:05.367Z,100698.91
2023-03-18T11:22:20.582Z,100712.31
2023-03-18T11:27:28.079Z,100710.09
2023-03-18T11:32:34.343Z,100707.69
2023-03-18T11:37:41.475Z,100715.41
2023-03-18T11:42:45.580Z,100710.72
2023-03-18T11:47:49.399Z,100707.50
2023-03-18T11:53:00.843Z,100705.34
2023-03-18T11:58:36.706Z,100710.59
2023-03-18T12:03:59.806Z,100710.66
2023-03-18T12:09:11.044Z,100713.63
2023-03-18T12:14:21.484Z,100716.47
2023-03-18T12:19:42.542Z,100725.63
2023-03-18T12:25:03.718Z,100731.94
2023-03-18T12:30:23.113Z,100714.41
2023-03-18T12:35:39.413Z,100719.63
2023-03-18T12:41:01.114Z,100739.84
2023-03-18T12:46:12.176Z,100740.16
2023-03-18T12:51:19.716Z,100747.94
2023-03-18T12:56:27.632Z,100743.13
2023-03-18T13:01:39.052Z,100739.38
2023-03-18T13:06:45.814Z,100735.53
2023-03-18T13:12:01.989Z,100724.38
2023-03-18T13:17:05.852Z,100716.25
2023-03-18T13:22:25.357Z,100717.91
2023-03-18T13:27:45.611Z,100721.34
2023-03-18T13:33:03.461Z,100712.66
2023-03-18T13:38:28.096Z,100713.19
2023-03-18T13:43:35.101Z,100713.09
2023-03-18T13:48:41.972Z,100705.69
2023-03-18T13:53:45.437Z,100694.44
2023-03-18T13:58:52.596Z,100686.44
2023-03-18T14:03:58.386Z,100695.16
2023-03-18T14:09:36.148Z,100683.91
2023-03-18T14:15:02.746Z,100675.91
2023-03-18T14:20:23.888Z,100671.03
2023-03-18T14:25:42.220Z,100675.78
2023-03-18T14:30:50.176Z,100680.97
2023-03-18T14:35:58.417Z,100668.44
2023-03-18T14:41:04.672Z,100671.13
2023-03-18T14:46:19.057Z,100672.97
2023-03-18T14:51:23.796Z,100676.44
2023-03-18T14:56:31.246Z,100671.56
2023-03-18T15:01:39.099Z,100674.00
2023-03-18T15:06:43.176Z,100687.03
2023-03-18T15:11:47.912Z,100697.44
2023-03-18T15:16:54.812Z,100697.47
2023-03-18T15:22:03.523Z,100707.81
2023-03-18T15:27:12.617Z,100710.00
2023-03-18T15:32:21.420Z,100699.25
2023-03-18T15:37:42.533Z,100688.34
2023-03-18T15:42:46.202Z,100684.22
2023-03-18T15:47:50.799Z,100680.13
2023-03-18T15:53:02.944Z,100677.47
2023-03-18T15:58:19.472Z,100692.34
2023-03-18T16:03:26.109Z,100708.69
2023-03-18T16:08:29.591Z,100714.38
2023-03-18T16:13:35.848Z,100701.38
2023-03-18T16:18:40.636Z,100716.31
2023-03-18T16:23:43.796Z,100712.47
2023-03-18T16:28:48.631Z,100712.59
2023-03-18T16:33:56.341Z,100712.81
2023-03-18T16:38:59.608Z,100713.00
2023-03-18T16:44:03.271Z,100722.94
2023-03-18T16:49:07.856Z,100720.75
2023-03-18T16:54:19.136Z,100728.16
2023-03-18T16:59:23.382Z,100733.16
2023-03-18T17:04:30.202Z,100740.09
2023-03-18T17:09:33.741Z,100737.84
2023-03-18T17:14:39.973Z,100738.75
2023-03-18T17:19:44.899Z,100741.13
2023-03-18T17:24:48.321Z,100759.06
2023-03-18T17:29:51.531Z,100765.66
2023-03-18T17:34:56.477Z,100772.09
2023-03-18T17:39:59.668Z,100775.09
2023-03-18T17:45:07.587Z,100786.38
2023-03-18T17:50:15.192Z,100794.16
2023-03-18T17:55:22.570Z,100808.56
2023-03-18T18:00:27.651Z,100825.75
2023-03-18T18:05:32.603Z,100837.78
2023-03-18T18:10:35.959Z,100816.44
2023-03-18T18:15:39.205Z,100808.22
2023-03-18T18:20:43.898Z,100816.47
2023-03-18T18:25:47.064Z,100831.19
2023-03-18T18:30:50.513Z,100828.91
2023-03-18T18:35:55.778Z,100831.03
2023-03-18T18:41:00.430Z,100834.06
2023-03-18T18:46:03.769Z,100844.91
2023-03-18T18:51:15.667Z,100858.00
2023-03-18T18:56:23.184Z,100873.44
2023-03-18T19:01:26.416Z,100870.00
2023-03-18T19:06:32.754Z,100860.69
2023-03-18T19:11:37.068Z,100877.97
2023-03-18T19:16:40.233Z,100883.06
2023-03-18T19:21:44.962Z,100880.06
2023-03-18T19:26:48.133Z,100896.75
2023-03-18T19:31:51.772Z,100904.03
2023-03-18T19:36:56.926Z,100919.03
2023-03-18T19:42:00.192Z,100922.25
2023-03-18T19:47:04.261Z,100925.91
2023-03-18T19:52:17.728Z,100940.44
2023-03-18T19:57:24.484Z,100950.16
2023-03-18T20:02:29.734Z,100948.66
2023-03-18T20:07:34.298Z,100959.63
2023-03-18T20:12:39.361Z,100971.56
2023-03-18T20:17:43.998Z,100969.00
2023-03-18T20:22:52.531Z,100971.41
2023-03-18T20:27:56.835Z,100979.69
2023-03-18T20:33:00.713Z,100997.41
2023-03-18T20:38:11.934Z,101000.06
2023-03-18T20:43:16.736Z,101010.66
2023-03-18T20:48:20.030Z,101018.75
2023-03-18T20:53:27.524Z,101018.16
2023-03-18T20:58:30.879Z,101026.34
2023-03-18T21:03:36.096Z,101022.97
2023-03-18T21:08:41.262Z,101019.72
2023-03-18T21:13:44.553Z,101027.50
2023-03-18T21:18:48.490Z,101021.53
2023-03-18T21:23:54.840Z,101040.38
2023-03-18T21:28:58.826Z,101032.56
2023-03-18T21:34:02.469Z,101020.25
2023-03-18T21:39:07.576Z,101029.97
2023-03-18T21:44:12.677Z,101031.16
2023-03-18T21:49:16.287Z,101045.16
2023-03-18T21:54:21.113Z,101055.00
2023-03-18T21:59:24.404Z,101049.47
2023-03-18T22:04:27.685Z,101045.09
2023-03-18T22:09:32.369Z,101050.16
2023-03-18T22:14:35.642Z,101042.38
2023-03-18T22:19:38.844Z,101035.72
2023-03-18T22:24:43.555Z,101040.88
2023-03-18T22:29:47.196Z,101045.88
2023-03-18T22:34:50.636Z,101053.88
2023-03-18T22:39:55.348Z,101046.09
2023-03-18T22:44:58.609Z,101048.84
2023-03-18T22:50:01.825Z,101061.94
2023-03-18T22:55:18.108Z,101066.16
2023-03-18T23:00:26.234Z,101088.84
2023-03-18T23:05:29.601Z,101078.88
2023-03-18T23:10:34.500Z,101092.66
2023-03-18T23:15:37.729Z,101096.59
2023-03-18T23:20:41.055Z,101090.06
2023-03-18T23:25:47.287Z,101082.19
2023-03-18T23:30:52.723Z,101085.47
2023-03-18T23:35:55.961Z,101084.38
2023-03-18T23:41:00.530Z,101086.13
2023-03-18T23:46:03.946Z,101083.34
2023-03-18T23:51:07.489Z,101099.16
2023-03-18T23:56:13.958Z,101092.97
